Bartlett, Nebraska
Current Conditions -  °F | °C
As of 7:35 PM on Monday 24 Nov 2014 (Local Time) from KBVN Reporting Station
Scattered Clouds Scattered Clouds  
Wind Chill: 17°   Ceiling: Unl
Heat Index: 26°   Visibility: 10mi
Dew Point:   Wind: 9mph
Humidity: 43%   Direction: 320°NW
Pressure: 30.04"   Gusts: NA
Location:  41.89°N, 98.55°W
Report Text: KBVN 250135Z AUTO 32008KT 10SM SCT110 M03/M14 A3004 RMK AO2 T10341145
Loading
Personal Weather Stations






























Interactive Weather Map New forecast layout! Learn more

10-Day Weather Forecast

Advertisements
Track Severe Weather on mobile